OSOK1: Oswego hwy 160

                                SHEF ID:       OSOK1     Oswego hwy 160
STATION TYPE:

PRECIP STAGE RIV-FLOW VOLTAGE BAT-LOAD
in ft cfs volt volt
Ccp-Rev Ccp-Rev Ccp-Rev Ccp-Rev Ccp-Rev
(America/Chicago)
04/26 00:00 0.00 13.17 4062 12.76 12.48
04/26 01:00 0.00 13.13 4014 12.74 12.47
04/26 02:00 0.00 13.07 3941 12.72 12.45
04/26 03:00 0.00 13.01 3869 12.70 12.43
04/26 04:00 0.00 12.96 3809 12.69 12.41
04/26 05:00 0.00 12.90 3738 12.67 12.40
04/26 06:00 0.00 12.84 3668 12.65 12.39
04/26 07:00 0.00 12.78 3598 12.71 12.40
04/26 08:00 0.00 12.71 3517 13.88 13.18
04/26 09:00 0.00 12.65 3448 13.59 13.39
04/26 10:00 0.00 12.59 3379 13.10 12.89
04/26 11:00 0.00 12.54 3323 12.93 12.68
04/26 12:00 0.00 12.46 3234 12.85 12.58
04/26 13:00 0.00 12.40 3168 13.83 12.96
04/26 14:00 0.00 12.33 3092 13.74 13.21
04/26 15:00 0.00 12.25 3006 13.31 12.99
04/26 16:00 0.00 12.19 2942 13.31 12.93
04/26 17:00 0.00 12.12 2868 13.41 12.90
04/26 18:00 0.00 12.06 2805 13.50 12.94
04/26 19:00 0.00 12.00 2742 13.07 12.84
04/26 20:00 0.00 11.95 2691 12.90 12.65
04/26 21:00 0.09 11.88 2619 12.83 12.57
04/26 22:00 0.28 11.87 2609 12.79 12.53
04/26 23:00 ---- ---- ---- ---- ----
Data processed at Mon 27Apr2026 03:50 GMT

NOTICE: If you are parsing this page

Please convert to using our Data API. Starting early 2026 we will be migrating to: https://water.usace.army.mil with modern pages rendered in JavaScript. When this migration completes you will no longer be able to scrape this page! CWMSDataAPI (CDA)

Timeseries IDs (TSIDs)

TSIDs used from left to right in the data table
OSWN.Precip-Inc.Total.1Hour.1Hour.Ccp-Rev
OSWN.Stage.Inst.1Hour.0.Ccp-Rev
OSWN.Flow.Inst.1Hour.0.Ccp-Rev
OSWN.Volt-Battery.Inst.1Hour.0.Ccp-Rev
OSWN.Volt-Battery Load.Inst.1Hour.0.Ccp-Rev

                            

All information presented herein is the property of the government of the United States of America and may be revised or deleted at any time without prior notice. Dissemination of this information without the expressed written consent of the Public Affairs Office, Tulsa District U.S. Army Corps of Engineers is strictly prohibited. These data are gathered electronically and, as presented, have NOT undergone any form of quality control. These data are NOT guaranteed to be valid or correct.